aviador You're here:

OIIP Decoded Metar

KARAJ/PAYAM in IRAN
Report Time2017-08-18 04:00:00
UTC Time2017-08-18 04:51:06
Flight Rules vfr VFR
Wind260° at 04 kt
W.Decomp.*RWY 30: 2.9 kt HW 2.7 kt LCW
W.Rank260° ranks 14
Current wind is below 260° avg. (9.2)
Visibility9999 m
Phenomena:N/A
Clouds:Few 040 Hf
Expected CloudBase > 5,200 ft AGL from Temp-Dew spread
CeilingNone
Temp24°C (ISA +17)
Dew Point11°C (44% RH)
AAT22.9°C
QNH1015 hPa
Density Alt6,273 ft
Elevation4,170 ft
Report Wrong Elevation
Raw Report
METAR OIIP 180400Z 26004KT 9999 FEW040 24/11 Q1015=

Extra information for OIIP:More info

Metar Taf Metar & Taf Last 4 Metars F.Rules Stats Wind Profile Meteogram Temp Stats Airport Information Weather charts Add Link Nearby VenuesMetar ALERT Operation Metar Decoded Social comments